Weather Data

Pearl Creek Farm: 8878 N Farm Road 75, Walnut Grove MO 65770

<== Previous Day (Thursday 05 Mar 2009) | Next Day (Saturday 07 Mar 2009) ==>

Summary Precipitation Data For Friday 06 March 2009

ElementValueUnits
Precipitation0"
Notes(none)
SourceSpringfield-Branson National Airport (SGF)

Summary Temperature Data For Friday 06 March 2009

ElementValueUnits
High Temperature80 oF
Low Temperature61 oF
Average Temperature69 oF
High Humidity73 %
Low Humidity33 %
Average Humidity55 %
SourceSpringfield-Branson National Airport (SGF)

Detail Temperature Data For Friday 06 March 2009

Date / TimeTemp (F)RH (%)Dew Pt (F)Report Date / TimeSource
2009-03-06 00:52:00 62 73 53.0 2017-12-29 19:14:24.89625 Springfield-Branson National Airport (SGF)
2009-03-06 01:52:00 62 73 53.0 2017-12-29 19:14:24.89625 Springfield-Branson National Airport (SGF)
2009-03-06 02:52:00 61 72 52.0 2017-12-29 19:14:24.89625 Springfield-Branson National Airport (SGF)
2009-03-06 03:52:00 65 59 50.0 2017-12-29 19:14:24.89625 Springfield-Branson National Airport (SGF)
2009-03-06 04:52:00 63 63 50.0 2017-12-29 19:14:24.89625 Springfield-Branson National Airport (SGF)
2009-03-06 05:52:00 63 63 50.0 2017-12-29 19:14:24.89625 Springfield-Branson National Airport (SGF)
2009-03-06 06:52:00 62 67 51.0 2017-12-29 19:14:24.89625 Springfield-Branson National Airport (SGF)
2009-03-06 07:52:00 64 63 51.0 2017-12-29 19:14:24.89625 Springfield-Branson National Airport (SGF)
2009-03-06 08:52:00 68 57 52.0 2017-12-29 19:14:24.89625 Springfield-Branson National Airport (SGF)
2009-03-06 09:52:00 71 51 52.0 2017-12-29 19:14:24.89625 Springfield-Branson National Airport (SGF)
2009-03-06 10:52:00 73 46 51.0 2017-12-29 19:14:24.89625 Springfield-Branson National Airport (SGF)
2009-03-06 11:52:00 76 42 51.0 2017-12-29 19:14:24.89625 Springfield-Branson National Airport (SGF)
2009-03-06 12:52:00 78 37 50.0 2017-12-29 19:14:24.89625 Springfield-Branson National Airport (SGF)
2009-03-06 13:52:00 80 33 48.0 2017-12-29 19:14:24.89625 Springfield-Branson National Airport (SGF)
2009-03-06 14:52:00 80 35 50.0 2017-12-29 19:14:24.89625 Springfield-Branson National Airport (SGF)
2009-03-06 15:52:00 80 34 49.0 2017-12-29 19:14:24.89625 Springfield-Branson National Airport (SGF)
2009-03-06 16:52:00 77 40 51.0 2017-12-29 19:14:24.89625 Springfield-Branson National Airport (SGF)
2009-03-06 17:52:00 74 45 51.0 2017-12-29 19:14:24.89625 Springfield-Branson National Airport (SGF)
2009-03-06 18:52:00 70 53 52.0 2017-12-29 19:14:24.89625 Springfield-Branson National Airport (SGF)
2009-03-06 19:52:00 68 59 53.0 2017-12-29 19:14:24.89625 Springfield-Branson National Airport (SGF)
2009-03-06 20:52:00 66 65 54.0 2017-12-29 19:14:24.89625 Springfield-Branson National Airport (SGF)
2009-03-06 21:52:00 68 61 54.0 2017-12-29 19:14:24.89625 Springfield-Branson National Airport (SGF)
2009-03-06 22:52:00 66 63 53.0 2017-12-29 19:14:24.89625 Springfield-Branson National Airport (SGF)
2009-03-06 23:52:00 64 65 52.0 2017-12-29 19:14:24.89625 Springfield-Branson National Airport (SGF)

A total of 24 rows are displayed.